• Join FlightAware (Why Join?)
  • Login
  • US Flag 
04:49PM EDT


 

Airport Tracker/Info


-or-


 

Live Flight TrackerFlight Track Log ✈ TAM3224 ✈ 24-Sep-2013 ✈ SBSP / CGH - SBCF / CNF

Flight Track Log - Related Links

Times and Time Zones

All times are in EDT time to prevent confusion due to time zone crossing. See the TAM3224 flight status page for this flight to view local times or setup timezone preferences in your user account.

Time Position Orientation Groundspeed Altitude Reporting Facility
EDT Latitude Longitude Course Direction KTS MPH feet Rate Location/Type
05:50PM -23.6180 -46.6620 52° Northeast 158 182 3,000  Level FlightAware
05:50PM -23.6090 -46.6680 329° Northwest 158 182 3,700 2,400 Climbing FlightAware
05:50PM -23.6010 -46.6720 335° Northwest 183 211 4,000 1,980 Climbing FlightAware
05:50PM -23.5970 -46.6730 347° North 181 208 4,200 2,580 Climbing FlightAware
05:50PM -23.5780 -46.6590 34° Northeast 226 260 5,300 2,400 Climbing FlightAware
05:51PM -23.5760 -46.6470 80° East 239 275 5,600 1,200 Climbing FlightAware
05:51PM -23.5830 -46.6250 109° East 237 273 5,900 420 Climbing FlightAware
05:51PM -23.5940 -46.6070 124° Southeast 234 269 5,900 300 Level FlightAware
05:52PM -23.6080 -46.5850 125° Southeast 234 269 6,100 720 Climbing FlightAware
05:52PM -23.6090 -46.5800 102° East 238 274 6,200 2,400 Climbing FlightAware
05:52PM -23.6100 -46.5730 99° East 244 281 6,500 2,640 Climbing FlightAware
05:52PM -23.6050 -46.5450 79° East 265 305 7,400 2,280 Climbing FlightAware
05:53PM -23.5980 -46.5160 75° East 297 342 8,100 2,100 Climbing FlightAware
05:53PM -23.5910 -46.4880 75° East 319 367 8,800 2,280 Climbing FlightAware
05:53PM -23.5850 -46.4600 77° East 336 387 9,500 1,740 Climbing FlightAware
05:53PM -23.5770 -46.4270 75° East 350 403 9,900 900 Climbing FlightAware
05:54PM -23.5640 -46.3710 76° East 365 420 10,300 1,140 Climbing FlightAware
05:54PM -23.5520 -46.3280 73° East 387 445 11,000 1,980 Climbing FlightAware
05:55PM -23.5390 -46.3090 53° Northeast 381 438 11,500 2,700 Climbing FlightAware
05:55PM -23.5270 -46.2990 37° Northeast 372 428 11,900 3,660 Climbing FlightAware
05:55PM -23.5120 -46.2920 23° Northeast 353 406 12,600 3,840 Climbing FlightAware
05:56PM -23.4560 -46.2760 15° North 337 388 15,000 3,000 Climbing FlightAware
05:56PM -23.3970 -46.2600 14° North 358 412 16,400 2,280 Climbing FlightAware
05:57PM -23.3420 -46.2440 15° North 374 430 17,700 2,460 Climbing FlightAware
05:57PM -23.2840 -46.2270 15° North 382 440 19,200 2,460 Climbing FlightAware
05:58PM -23.2210 -46.2080 15° North 389 448 20,700 2,220 Climbing FlightAware
05:59PM -23.1470 -46.1870 15° North 404 465 22,200 2,040 Climbing FlightAware
05:59PM -23.0850 -46.1600 22° Northeast 424 488 23,300 1,440 Climbing FlightAware
06:00PM -23.0220 -46.1220 29° Northeast 447 514 23,900 1,320 Climbing FlightAware
06:00PM -22.9560 -46.0750 33° Northeast 455 524 24,900 1,860 Climbing FlightAware
06:01PM -22.8840 -46.0270 32° Northeast 456 525 26,300 2,040 Climbing FlightAware
06:02PM -22.8190 -45.9830 32° Northeast 456 525 27,500 1,920 Climbing FlightAware
06:02PM -22.7470 -45.9340 32° Northeast 458 527 28,700 1,980 Climbing FlightAware
06:03PM -22.6820 -45.8900 32° Northeast 456 525 30,000 1,860 Climbing FlightAware
06:03PM -22.6190 -45.8480 32° Northeast 461 531 30,900 1,320 Climbing FlightAware
06:04PM -22.5530 -45.8030 32° Northeast 476 548 31,600 1,260 Climbing FlightAware
06:05PM -22.4910 -45.7610 32° Northeast 474 545 32,400 1,200 Climbing FlightAware
06:05PM -22.4200 -45.7130 32° Northeast 491 565 33,000 480 Climbing FlightAware
06:06PM -22.3530 -45.6680 32° Northeast 515 593 33,000  Level FlightAware
06:07PM -22.2490 -45.5980 32° Northeast 531 611 33,000  Level FlightAware
06:07PM -22.1760 -45.5490 32° Northeast 530 610 33,000  Level FlightAware
06:08PM -22.1060 -45.5020 32° Northeast 530 610 33,000  Level FlightAware
06:08PM -22.0350 -45.4550 32° Northeast 530 610 33,000  Level FlightAware
06:09PM -21.9690 -45.4110 32° Northeast 529 609 33,000  Level FlightAware
06:10PM -21.8420 -45.3260 32° Northeast 519 597 33,000  Level FlightAware
06:10PM -21.7700 -45.2770 32° Northeast 518 596 33,000  Level FlightAware
06:11PM -21.6980 -45.2290 32° Northeast 519 597 33,000  Level FlightAware
06:12PM -21.6290 -45.1830 32° Northeast 526 605 33,000 -120 Level FlightAware
06:12PM -21.5500 -45.1310 31° Northeast 530 610 32,900 -1,500 Descending FlightAware
06:13PM -21.4790 -45.0830 32° Northeast 535 616 31,300 -2,520 Descending FlightAware
06:14PM -21.3820 -45.0180 32° Northeast 518 596 29,500 -1,860 Descending FlightAware
06:14PM -21.3220 -44.9790 31° Northeast 521 600 29,000 -480 Descending FlightAware
06:15PM -21.2500 -44.9310 32° Northeast 516 594 29,000  Level FlightAware
06:15PM -21.1780 -44.8830 32° Northeast 516 594 29,000  Level FlightAware
06:16PM -21.0980 -44.8310 31° Northeast 516 594 29,000  Level FlightAware
06:16PM -21.0380 -44.7910 32° Northeast 512 589 29,000  Level FlightAware
06:17PM -20.9620 -44.7550 24° Northeast 504 580 29,000  Level FlightAware
06:18PM -20.8870 -44.7240 21° North 486 559 29,000 -360 Level FlightAware
06:18PM -20.8040 -44.6880 22° Northeast 482 555 28,600 -1,380 Descending FlightAware
06:19PM -20.7420 -44.6620 21° North 481 554 27,400 -2,040 Descending FlightAware
06:19PM -20.6730 -44.6320 22° Northeast 466 536 26,400 -2,280 Descending FlightAware
06:20PM -20.5970 -44.6000 22° Northeast 480 552 24,800 -2,520 Descending FlightAware
06:20PM -20.5260 -44.5710 21° North 465 535 23,500 -2,760 Descending FlightAware
06:21PM -20.4580 -44.5420 22° Northeast 457 526 21,600 -2,760 Descending FlightAware
06:22PM -20.3890 -44.5120 22° Northeast 440 506 20,300 -1,200 Descending FlightAware
06:22PM -20.3180 -44.4820 22° Northeast 388 447 20,100 -540 Descending FlightAware
06:23PM -20.2720 -44.4620 22° Northeast 366 421 19,700 -1,140 Descending FlightAware
06:23PM -20.2160 -44.4390 21° North 355 409 18,900 -1,500 Descending FlightAware
06:24PM -20.1630 -44.4160 22° Northeast 342 394 18,000 -2,100 Descending FlightAware
06:25PM -20.1140 -44.3960 21° North 330 380 16,500 -2,640 Descending FlightAware
06:25PM -20.0560 -44.3720 21° North 322 371 14,700 -2,520 Descending FlightAware
06:26PM -20.0200 -44.3670 North 308 354 13,800 -1,980 Descending FlightAware
06:26PM -19.9670 -44.3640 North 285 328 12,600 -1,620 Descending FlightAware
06:27PM -19.9150 -44.3620 North 277 319 11,700 -1,320 Descending FlightAware
06:27PM -19.8770 -44.3600 North 271 312 11,100 -660 Descending FlightAware
06:28PM -19.8260 -44.3560 North 273 314 11,000 -300 Descending FlightAware
06:29PM -19.7890 -44.3530 North 260 299 10,800 -600 Descending FlightAware
06:29PM -19.7490 -44.3500 North 243 280 10,400 -660 Descending FlightAware
06:30PM -19.7050 -44.3450 North 225 259 10,000 -360 Descending FlightAware
06:30PM -19.6710 -44.3420 North 227 261 10,000  Level FlightAware
06:31PM -19.6480 -44.3400 North 229 264 10,000  Level FlightAware
06:31PM -19.6110 -44.3370 North 228 262 10,000  Level FlightAware
06:32PM -19.5820 -44.3340 North 228 262 10,000 -480 Level FlightAware
06:32PM -19.5580 -44.3320 North 235 270 9,600 -1,800 Descending FlightAware
06:33PM -19.5350 -44.3300 North 252 290 8,800 -2,400 Descending FlightAware
06:33PM -19.5230 -44.3290 North 260 299 8,400 -2,280 Descending FlightAware
06:33PM -19.4920 -44.3250 North 279 321 7,500 -2,100 Descending FlightAware
06:33PM -19.4860 -44.3230 17° North 281 323 7,400 -1,200 Descending FlightAware
06:33PM -19.4810 -44.3190 37° Northeast 282 325 7,300 -780 Descending FlightAware
06:33PM -19.4710 -44.3090 43° Northeast 280 322 7,200 -420 Descending FlightAware
06:34PM -19.4550 -44.2880 51° Northeast 264 304 7,100 -540 Descending FlightAware
06:34PM -19.4380 -44.2650 52° Northeast 248 285 6,800 -720 Descending FlightAware
06:35PM -19.4260 -44.2440 59° Northeast 245 282 6,600 -540 Descending FlightAware
06:35PM -19.4250 -44.2370 81° East 245 282 6,600 -780 Level FlightAware
06:35PM -19.4370 -44.1910 105° East 239 275 6,000 -720 Descending FlightAware
06:36PM -19.4430 -44.1700 107° East 239 275 5,900 -180 Descending FlightAware
06:36PM -19.4520 -44.1430 109° East 215 247 5,900  Level FlightAware
06:36PM -19.4560 -44.1360 121° Southeast 202 232 5,900  Level FlightAware
06:36PM -19.4620 -44.1280 129° Southeast 191 220 5,900  Level FlightAware
06:37PM -19.4750 -44.1150 137° Southeast 174 200 5,900  Level FlightAware
06:37PM -19.4870 -44.1040 139° Southeast 168 193 5,900 -180 Level FlightAware
06:37PM -19.4960 -44.0960 140° Southeast 168 193 5,800 -780 Descending FlightAware
06:38PM -19.5110 -44.0820 139° Southeast 168 193 5,400 -960 Descending FlightAware
06:38PM -19.5190 -44.0750 140° Southeast 169 194 5,200 -900 Descending FlightAware
06:38PM -19.5340 -44.0610 139° Southeast 170 196 4,800 -840 Descending FlightAware
06:39PM -19.5460 -44.0500 139° Southeast 159 183 4,600 -780 Descending FlightAware
06:39PM -19.5560 -44.0400 137° Southeast 149 171 4,300 -780 Descending FlightAware
06:39PM -19.5660 -44.0320 143° Southeast 140 161 4,100 -780 Descending FlightAware
06:40PM -19.5760 -44.0220 137° Southeast 139 160 3,800 -840 Descending FlightAware
06:40PM -19.5870 -44.0120 139° Southeast 141 162 3,500 -720 Descending FlightAware
06:40PM -19.5970 -44.0030 140° Southeast 142 163 3,300 -780 Descending FlightAware
06:41PM -19.6080 -43.9920 137° Southeast 141 162 3,000 -780 Descending FlightAware
06:41PM -19.6180 -43.9830 140° Southeast 141 162 2,800 -600 Descending FlightAware
06:42PM -19.6300 -43.9720 139° Southeast 125 144 -6,720 Descending FlightAware